sensor_id;sensor_type;location;lat;lon;timestamp;P1;durP1;ratioP1;P2;durP2;ratioP2
74231;SDS011;62590;52.430;4.902;2022-11-14T00:01:51;17.85;;;9.82;;
74231;SDS011;62590;52.430;4.902;2022-11-14T00:04:17;21.75;;;12.07;;
74231;SDS011;62590;52.430;4.902;2022-11-14T00:06:42;22.55;;;11.50;;
74231;SDS011;62590;52.430;4.902;2022-11-14T00:09:07;24.23;;;12.13;;
74231;SDS011;62590;52.430;4.902;2022-11-14T00:11:33;27.50;;;12.68;;
74231;SDS011;62590;52.430;4.902;2022-11-14T00:13:58;23.75;;;11.93;;
74231;SDS011;62590;52.430;4.902;2022-11-14T00:16:23;30.48;;;13.93;;
74231;SDS011;62590;52.430;4.902;2022-11-14T00:18:49;28.05;;;12.18;;
74231;SDS011;62590;52.430;4.902;2022-11-14T00:21:15;22.95;;;11.15;;
74231;SDS011;62590;52.430;4.902;2022-11-14T00:23:40;25.05;;;12.55;;
74231;SDS011;62590;52.430;4.902;2022-11-14T00:26:05;35.33;;;14.43;;
74231;SDS011;62590;52.430;4.902;2022-11-14T00:28:31;24.95;;;12.77;;
74231;SDS011;62590;52.430;4.902;2022-11-14T00:30:56;27.48;;;14.00;;
74231;SDS011;62590;52.430;4.902;2022-11-14T00:33:21;28.52;;;14.05;;
74231;SDS011;62590;52.430;4.902;2022-11-14T00:35:53;26.13;;;12.88;;
74231;SDS011;62590;52.430;4.902;2022-11-14T00:38:20;33.58;;;14.77;;
74231;SDS011;62590;52.430;4.902;2022-11-14T00:40:46;31.25;;;13.57;;
74231;SDS011;62590;52.430;4.902;2022-11-14T00:43:11;31.85;;;15.75;;
74231;SDS011;62590;52.430;4.902;2022-11-14T00:45:37;32.60;;;15.10;;
74231;SDS011;62590;52.430;4.902;2022-11-14T00:48:03;33.17;;;15.82;;
74231;SDS011;62590;52.430;4.902;2022-11-14T00:50:28;35.28;;;15.65;;
74231;SDS011;62590;52.430;4.902;2022-11-14T00:52:54;33.92;;;16.80;;
74231;SDS011;62590;52.430;4.902;2022-11-14T00:55:19;40.83;;;16.75;;
74231;SDS011;62590;52.430;4.902;2022-11-14T00:57:45;38.95;;;17.13;;
74231;SDS011;62590;52.430;4.902;2022-11-14T01:00:11;40.10;;;17.23;;
74231;SDS011;62590;52.430;4.902;2022-11-14T01:02:38;38.15;;;18.23;;
74231;SDS011;62590;52.430;4.902;2022-11-14T01:05:03;39.80;;;16.83;;
74231;SDS011;62590;52.430;4.902;2022-11-14T01:07:29;38.50;;;17.48;;
74231;SDS011;62590;52.430;4.902;2022-11-14T01:09:54;39.10;;;18.00;;
74231;SDS011;62590;52.430;4.902;2022-11-14T01:12:20;35.65;;;16.08;;
74231;SDS011;62590;52.430;4.902;2022-11-14T01:14:45;40.85;;;17.52;;
74231;SDS011;62590;52.430;4.902;2022-11-14T01:17:11;35.40;;;17.27;;
74231;SDS011;62590;52.430;4.902;2022-11-14T01:19:36;42.70;;;20.10;;
74231;SDS011;62590;52.430;4.902;2022-11-14T01:22:02;35.70;;;17.00;;
74231;SDS011;62590;52.430;4.902;2022-11-14T01:24:27;39.05;;;18.55;;
74231;SDS011;62590;52.430;4.902;2022-11-14T01:26:56;47.78;;;20.52;;
74231;SDS011;62590;52.430;4.902;2022-11-14T01:29:21;43.97;;;18.73;;
74231;SDS011;62590;52.430;4.902;2022-11-14T01:31:47;39.88;;;17.13;;
74231;SDS011;62590;52.430;4.902;2022-11-14T01:34:12;41.25;;;19.15;;
74231;SDS011;62590;52.430;4.902;2022-11-14T01:36:37;44.50;;;18.60;;
74231;SDS011;62590;52.430;4.902;2022-11-14T01:39:03;39.50;;;17.70;;
74231;SDS011;62590;52.430;4.902;2022-11-14T01:41:28;42.40;;;18.48;;
74231;SDS011;62590;52.430;4.902;2022-11-14T01:43:53;39.97;;;17.65;;
74231;SDS011;62590;52.430;4.902;2022-11-14T01:48:45;38.80;;;17.40;;
74231;SDS011;62590;52.430;4.902;2022-11-14T01:51:25;44.70;;;20.55;;
74231;SDS011;62590;52.430;4.902;2022-11-14T01:53:55;46.80;;;18.58;;
74231;SDS011;62590;52.430;4.902;2022-11-14T01:56:27;42.75;;;20.13;;
74231;SDS011;62590;52.430;4.902;2022-11-14T01:59:04;47.17;;;20.13;;
74231;SDS011;62590;52.430;4.902;2022-11-14T02:01:33;45.90;;;18.95;;
74231;SDS011;62590;52.430;4.902;2022-11-14T02:04:00;45.47;;;19.85;;
74231;SDS011;62590;52.430;4.902;2022-11-14T02:06:29;49.10;;;20.70;;
74231;SDS011;62590;52.430;4.902;2022-11-14T02:08:55;43.03;;;19.80;;
74231;SDS011;62590;52.430;4.902;2022-11-14T02:11:23;46.80;;;20.40;;
74231;SDS011;62590;52.430;4.902;2022-11-14T02:13:52;45.97;;;20.40;;
74231;SDS011;62590;52.430;4.902;2022-11-14T02:16:18;56.03;;;20.80;;
74231;SDS011;62590;52.430;4.902;2022-11-14T02:18:43;46.00;;;20.20;;
74231;SDS011;62590;52.430;4.902;2022-11-14T02:21:09;53.33;;;21.58;;
74231;SDS011;62590;52.430;4.902;2022-11-14T02:23:34;54.85;;;22.23;;
74231;SDS011;62590;52.430;4.902;2022-11-14T02:25:59;53.83;;;22.10;;
74231;SDS011;62590;52.430;4.902;2022-11-14T02:28:25;52.72;;;22.48;;
74231;SDS011;62590;52.430;4.902;2022-11-14T02:30:51;56.13;;;23.23;;
74231;SDS011;62590;52.430;4.902;2022-11-14T02:33:16;55.90;;;22.67;;
74231;SDS011;62590;52.430;4.902;2022-11-14T02:35:41;54.22;;;21.55;;
74231;SDS011;62590;52.430;4.902;2022-11-14T02:38:07;58.53;;;24.58;;
74231;SDS011;62590;52.430;4.902;2022-11-14T02:40:33;51.88;;;22.33;;
74231;SDS011;62590;52.430;4.902;2022-11-14T02:42:58;54.85;;;22.67;;
74231;SDS011;62590;52.430;4.902;2022-11-14T02:45:24;54.85;;;21.38;;
74231;SDS011;62590;52.430;4.902;2022-11-14T02:47:50;54.55;;;23.08;;
74231;SDS011;62590;52.430;4.902;2022-11-14T02:50:15;58.10;;;24.42;;
74231;SDS011;62590;52.430;4.902;2022-11-14T02:52:41;56.78;;;20.73;;
74231;SDS011;62590;52.430;4.902;2022-11-14T02:55:06;55.28;;;23.73;;
74231;SDS011;62590;52.430;4.902;2022-11-14T02:57:32;59.22;;;24.38;;
74231;SDS011;62590;52.430;4.902;2022-11-14T02:59:57;59.65;;;23.30;;
74231;SDS011;62590;52.430;4.902;2022-11-14T03:02:23;55.83;;;23.80;;
74231;SDS011;62590;52.430;4.902;2022-11-14T03:04:48;54.45;;;22.70;;
74231;SDS011;62590;52.430;4.902;2022-11-14T03:07:13;57.33;;;23.33;;
74231;SDS011;62590;52.430;4.902;2022-11-14T03:09:39;58.53;;;23.27;;
74231;SDS011;62590;52.430;4.902;2022-11-14T03:12:04;56.22;;;22.10;;
74231;SDS011;62590;52.430;4.902;2022-11-14T03:14:30;54.20;;;22.38;;
74231;SDS011;62590;52.430;4.902;2022-11-14T03:16:55;53.35;;;22.35;;
74231;SDS011;62590;52.430;4.902;2022-11-14T03:19:21;54.80;;;21.85;;
74231;SDS011;62590;52.430;4.902;2022-11-14T03:21:46;57.65;;;23.95;;
74231;SDS011;62590;52.430;4.902;2022-11-14T03:24:12;54.75;;;22.75;;
74231;SDS011;62590;52.430;4.902;2022-11-14T03:26:37;60.70;;;23.23;;
74231;SDS011;62590;52.430;4.902;2022-11-14T03:29:02;52.58;;;20.80;;
74231;SDS011;62590;52.430;4.902;2022-11-14T03:31:28;63.17;;;23.75;;
74231;SDS011;62590;52.430;4.902;2022-11-14T03:33:53;60.70;;;25.67;;
74231;SDS011;62590;52.430;4.902;2022-11-14T03:36:18;61.58;;;24.17;;
74231;SDS011;62590;52.430;4.902;2022-11-14T03:38:44;58.28;;;22.90;;
74231;SDS011;62590;52.430;4.902;2022-11-14T03:41:09;60.30;;;23.67;;
74231;SDS011;62590;52.430;4.902;2022-11-14T03:43:35;65.93;;;23.92;;
74231;SDS011;62590;52.430;4.902;2022-11-14T03:46:00;61.92;;;23.48;;
74231;SDS011;62590;52.430;4.902;2022-11-14T03:48:27;71.82;;;26.67;;
74231;SDS011;62590;52.430;4.902;2022-11-14T03:50:53;66.65;;;23.65;;
74231;SDS011;62590;52.430;4.902;2022-11-14T03:53:19;66.07;;;25.65;;
74231;SDS011;62590;52.430;4.902;2022-11-14T03:55:45;66.60;;;24.73;;
74231;SDS011;62590;52.430;4.902;2022-11-14T03:58:10;57.38;;;22.55;;
74231;SDS011;62590;52.430;4.902;2022-11-14T04:00:36;65.30;;;24.75;;
74231;SDS011;62590;52.430;4.902;2022-11-14T04:03:01;61.22;;;23.15;;
74231;SDS011;62590;52.430;4.902;2022-11-14T04:05:27;63.33;;;24.73;;
74231;SDS011;62590;52.430;4.902;2022-11-14T04:07:52;66.28;;;25.90;;
74231;SDS011;62590;52.430;4.902;2022-11-14T04:10:18;73.60;;;27.67;;
74231;SDS011;62590;52.430;4.902;2022-11-14T04:12:50;62.88;;;23.77;;
74231;SDS011;62590;52.430;4.902;2022-11-14T04:15:17;60.38;;;24.23;;
74231;SDS011;62590;52.430;4.902;2022-11-14T04:17:43;60.85;;;24.63;;
74231;SDS011;62590;52.430;4.902;2022-11-14T04:20:09;69.45;;;26.95;;
74231;SDS011;62590;52.430;4.902;2022-11-14T04:22:35;69.75;;;25.70;;
74231;SDS011;62590;52.430;4.902;2022-11-14T04:25:01;65.63;;;24.17;;
74231;SDS011;62590;52.430;4.902;2022-11-14T04:27:26;63.60;;;25.70;;
74231;SDS011;62590;52.430;4.902;2022-11-14T04:29:51;66.93;;;24.98;;
74231;SDS011;62590;52.430;4.902;2022-11-14T04:32:17;63.65;;;25.35;;
74231;SDS011;62590;52.430;4.902;2022-11-14T04:34:42;60.70;;;24.25;;
74231;SDS011;62590;52.430;4.902;2022-11-14T04:37:08;59.53;;;24.17;;
74231;SDS011;62590;52.430;4.902;2022-11-14T04:39:33;74.78;;;26.17;;
74231;SDS011;62590;52.430;4.902;2022-11-14T04:41:59;70.43;;;25.20;;
74231;SDS011;62590;52.430;4.902;2022-11-14T04:44:24;62.22;;;23.30;;
74231;SDS011;62590;52.430;4.902;2022-11-14T04:46:49;65.88;;;24.13;;
74231;SDS011;62590;52.430;4.902;2022-11-14T04:49:15;67.70;;;24.70;;
74231;SDS011;62590;52.430;4.902;2022-11-14T04:51:40;73.10;;;25.40;;
74231;SDS011;62590;52.430;4.902;2022-11-14T04:54:05;64.95;;;25.55;;
74231;SDS011;62590;52.430;4.902;2022-11-14T04:56:31;61.08;;;24.17;;
74231;SDS011;62590;52.430;4.902;2022-11-14T04:58:56;61.25;;;24.00;;
74231;SDS011;62590;52.430;4.902;2022-11-14T05:01:21;66.72;;;25.25;;
74231;SDS011;62590;52.430;4.902;2022-11-14T05:03:47;64.07;;;22.60;;
74231;SDS011;62590;52.430;4.902;2022-11-14T05:06:12;62.50;;;23.88;;
74231;SDS011;62590;52.430;4.902;2022-11-14T05:08:37;60.42;;;23.13;;
74231;SDS011;62590;52.430;4.902;2022-11-14T05:11:03;68.78;;;24.63;;
74231;SDS011;62590;52.430;4.902;2022-11-14T05:13:28;58.25;;;22.42;;
74231;SDS011;62590;52.430;4.902;2022-11-14T05:15:57;64.13;;;24.05;;
74231;SDS011;62590;52.430;4.902;2022-11-14T05:18:23;65.63;;;23.27;;
74231;SDS011;62590;52.430;4.902;2022-11-14T05:20:49;57.75;;;22.27;;
74231;SDS011;62590;52.430;4.902;2022-11-14T05:23:18;67.72;;;23.08;;
74231;SDS011;62590;52.430;4.902;2022-11-14T05:25:45;66.63;;;24.23;;
74231;SDS011;62590;52.430;4.902;2022-11-14T05:28:10;64.18;;;22.48;;
74231;SDS011;62590;52.430;4.902;2022-11-14T05:30:36;66.53;;;23.52;;
74231;SDS011;62590;52.430;4.902;2022-11-14T05:33:01;57.42;;;22.02;;
74231;SDS011;62590;52.430;4.902;2022-11-14T05:35:27;71.97;;;24.90;;
74231;SDS011;62590;52.430;4.902;2022-11-14T05:37:52;66.35;;;24.08;;
74231;SDS011;62590;52.430;4.902;2022-11-14T05:40:17;67.65;;;24.13;;
74231;SDS011;62590;52.430;4.902;2022-11-14T05:42:43;62.33;;;22.75;;
74231;SDS011;62590;52.430;4.902;2022-11-14T05:45:08;64.18;;;25.70;;
74231;SDS011;62590;52.430;4.902;2022-11-14T05:47:34;62.53;;;23.00;;
74231;SDS011;62590;52.430;4.902;2022-11-14T05:50:00;58.03;;;21.75;;
74231;SDS011;62590;52.430;4.902;2022-11-14T05:52:25;61.63;;;22.75;;
74231;SDS011;62590;52.430;4.902;2022-11-14T05:54:51;64.03;;;21.35;;
74231;SDS011;62590;52.430;4.902;2022-11-14T05:57:16;63.58;;;22.13;;
74231;SDS011;62590;52.430;4.902;2022-11-14T05:59:41;59.17;;;22.13;;
74231;SDS011;62590;52.430;4.902;2022-11-14T06:02:07;62.10;;;23.60;;
74231;SDS011;62590;52.430;4.902;2022-11-14T06:04:32;61.42;;;24.27;;
74231;SDS011;62590;52.430;4.902;2022-11-14T06:06:58;59.00;;;22.90;;
74231;SDS011;62590;52.430;4.902;2022-11-14T06:09:23;67.28;;;24.08;;
74231;SDS011;62590;52.430;4.902;2022-11-14T06:11:48;61.47;;;23.35;;
74231;SDS011;62590;52.430;4.902;2022-11-14T06:14:14;62.63;;;23.42;;
74231;SDS011;62590;52.430;4.902;2022-11-14T06:16:39;67.38;;;23.92;;
74231;SDS011;62590;52.430;4.902;2022-11-14T06:19:05;67.20;;;23.63;;
74231;SDS011;62590;52.430;4.902;2022-11-14T06:21:30;61.15;;;23.60;;
74231;SDS011;62590;52.430;4.902;2022-11-14T06:23:55;69.97;;;23.90;;
74231;SDS011;62590;52.430;4.902;2022-11-14T06:28:48;58.78;;;22.33;;
74231;SDS011;62590;52.430;4.902;2022-11-14T06:31:14;62.15;;;23.65;;
74231;SDS011;62590;52.430;4.902;2022-11-14T06:33:40;63.67;;;22.50;;
74231;SDS011;62590;52.430;4.902;2022-11-14T06:36:06;65.90;;;22.35;;
74231;SDS011;62590;52.430;4.902;2022-11-14T06:38:33;55.30;;;20.73;;
74231;SDS011;62590;52.430;4.902;2022-11-14T06:41:00;58.67;;;22.30;;
74231;SDS011;62590;52.430;4.902;2022-11-14T06:43:33;61.75;;;21.90;;
74231;SDS011;62590;52.430;4.902;2022-11-14T06:45:59;87.55;;;27.10;;
74231;SDS011;62590;52.430;4.902;2022-11-14T06:48:25;62.83;;;23.08;;
74231;SDS011;62590;52.430;4.902;2022-11-14T06:50:53;65.10;;;23.77;;
74231;SDS011;62590;52.430;4.902;2022-11-14T06:53:20;70.30;;;24.05;;
74231;SDS011;62590;52.430;4.902;2022-11-14T06:55:55;60.20;;;21.80;;
74231;SDS011;62590;52.430;4.902;2022-11-14T06:58:26;62.40;;;22.55;;
74231;SDS011;62590;52.430;4.902;2022-11-14T07:00:52;62.28;;;21.85;;
74231;SDS011;62590;52.430;4.902;2022-11-14T07:03:18;62.65;;;23.33;;
74231;SDS011;62590;52.430;4.902;2022-11-14T07:05:44;64.53;;;23.15;;
74231;SDS011;62590;52.430;4.902;2022-11-14T07:08:09;65.38;;;21.25;;
74231;SDS011;62590;52.430;4.902;2022-11-14T07:10:35;62.47;;;22.05;;
74231;SDS011;62590;52.430;4.902;2022-11-14T07:13:00;57.20;;;20.42;;
74231;SDS011;62590;52.430;4.902;2022-11-14T07:15:26;59.63;;;21.83;;
74231;SDS011;62590;52.430;4.902;2022-11-14T07:17:51;62.17;;;23.35;;
74231;SDS011;62590;52.430;4.902;2022-11-14T07:20:16;60.22;;;21.48;;
74231;SDS011;62590;52.430;4.902;2022-11-14T07:22:45;56.33;;;20.40;;
74231;SDS011;62590;52.430;4.902;2022-11-14T07:25:11;54.92;;;20.55;;
74231;SDS011;62590;52.430;4.902;2022-11-14T07:27:37;54.90;;;20.50;;
74231;SDS011;62590;52.430;4.902;2022-11-14T07:30:02;61.97;;;22.27;;
74231;SDS011;62590;52.430;4.902;2022-11-14T07:32:28;52.22;;;20.58;;
74231;SDS011;62590;52.430;4.902;2022-11-14T07:34:54;61.15;;;21.98;;
74231;SDS011;62590;52.430;4.902;2022-11-14T07:37:19;54.83;;;20.35;;
74231;SDS011;62590;52.430;4.902;2022-11-14T07:39:44;52.55;;;20.70;;
74231;SDS011;62590;52.430;4.902;2022-11-14T07:42:10;59.25;;;21.02;;
74231;SDS011;62590;52.430;4.902;2022-11-14T07:44:35;54.85;;;21.45;;
74231;SDS011;62590;52.430;4.902;2022-11-14T07:47:01;56.03;;;19.92;;
74231;SDS011;62590;52.430;4.902;2022-11-14T07:49:26;49.20;;;18.42;;
74231;SDS011;62590;52.430;4.902;2022-11-14T07:51:51;52.78;;;20.85;;
74231;SDS011;62590;52.430;4.902;2022-11-14T07:54:17;46.95;;;17.60;;
74231;SDS011;62590;52.430;4.902;2022-11-14T07:56:42;50.20;;;18.77;;
74231;SDS011;62590;52.430;4.902;2022-11-14T07:59:07;55.30;;;18.13;;
74231;SDS011;62590;52.430;4.902;2022-11-14T08:01:33;55.00;;;20.60;;
74231;SDS011;62590;52.430;4.902;2022-11-14T08:03:58;55.50;;;20.08;;
74231;SDS011;62590;52.430;4.902;2022-11-14T08:06:23;54.33;;;20.38;;
74231;SDS011;62590;52.430;4.902;2022-11-14T08:08:49;55.45;;;20.80;;
74231;SDS011;62590;52.430;4.902;2022-11-14T08:11:15;54.38;;;20.55;;
74231;SDS011;62590;52.430;4.902;2022-11-14T08:13:40;58.40;;;21.27;;
74231;SDS011;62590;52.430;4.902;2022-11-14T08:16:06;51.03;;;19.40;;
74231;SDS011;62590;52.430;4.902;2022-11-14T08:18:34;46.58;;;17.63;;
74231;SDS011;62590;52.430;4.902;2022-11-14T08:21:02;43.90;;;17.88;;
74231;SDS011;62590;52.430;4.902;2022-11-14T08:23:28;49.15;;;17.75;;
74231;SDS011;62590;52.430;4.902;2022-11-14T08:25:53;54.45;;;18.98;;
74231;SDS011;62590;52.430;4.902;2022-11-14T08:28:18;52.10;;;19.65;;
74231;SDS011;62590;52.430;4.902;2022-11-14T08:30:44;47.47;;;17.92;;
74231;SDS011;62590;52.430;4.902;2022-11-14T08:33:09;51.88;;;18.02;;
74231;SDS011;62590;52.430;4.902;2022-11-14T08:35:34;46.60;;;17.92;;
74231;SDS011;62590;52.430;4.902;2022-11-14T08:38:00;48.08;;;18.77;;
74231;SDS011;62590;52.430;4.902;2022-11-14T08:40:26;53.05;;;16.50;;
74231;SDS011;62590;52.430;4.902;2022-11-14T08:42:57;52.97;;;18.98;;
74231;SDS011;62590;52.430;4.902;2022-11-14T08:45:23;51.60;;;20.10;;
74231;SDS011;62590;52.430;4.902;2022-11-14T08:47:51;50.83;;;18.70;;
74231;SDS011;62590;52.430;4.902;2022-11-14T08:50:17;49.00;;;17.83;;
74231;SDS011;62590;52.430;4.902;2022-11-14T08:52:47;45.17;;;17.30;;
74231;SDS011;62590;52.430;4.902;2022-11-14T08:55:13;52.53;;;20.50;;
74231;SDS011;62590;52.430;4.902;2022-11-14T08:57:38;50.60;;;17.85;;
74231;SDS011;62590;52.430;4.902;2022-11-14T09:00:04;44.83;;;17.60;;
74231;SDS011;62590;52.430;4.902;2022-11-14T09:02:30;52.90;;;18.20;;
74231;SDS011;62590;52.430;4.902;2022-11-14T09:04:55;50.85;;;19.70;;
74231;SDS011;62590;52.430;4.902;2022-11-14T09:07:20;57.35;;;21.45;;
74231;SDS011;62590;52.430;4.902;2022-11-14T09:09:45;49.55;;;18.02;;
74231;SDS011;62590;52.430;4.902;2022-11-14T09:12:11;52.65;;;19.65;;
74231;SDS011;62590;52.430;4.902;2022-11-14T09:14:36;53.75;;;18.48;;
74231;SDS011;62590;52.430;4.902;2022-11-14T09:17:01;62.95;;;20.67;;
74231;SDS011;62590;52.430;4.902;2022-11-14T09:19:27;48.45;;;17.35;;
74231;SDS011;62590;52.430;4.902;2022-11-14T09:21:52;53.65;;;18.48;;
74231;SDS011;62590;52.430;4.902;2022-11-14T09:24:17;55.75;;;19.60;;
74231;SDS011;62590;52.430;4.902;2022-11-14T09:26:43;51.00;;;18.63;;
74231;SDS011;62590;52.430;4.902;2022-11-14T09:29:08;53.97;;;19.73;;
74231;SDS011;62590;52.430;4.902;2022-11-14T09:31:33;52.08;;;19.13;;
74231;SDS011;62590;52.430;4.902;2022-11-14T09:33:59;60.33;;;21.13;;
74231;SDS011;62590;52.430;4.902;2022-11-14T09:36:24;45.10;;;16.92;;
74231;SDS011;62590;52.430;4.902;2022-11-14T09:38:50;49.40;;;18.13;;
74231;SDS011;62590;52.430;4.902;2022-11-14T09:43:58;49.55;;;18.85;;
74231;SDS011;62590;52.430;4.902;2022-11-14T09:46:46;50.20;;;17.13;;
74231;SDS011;62590;52.430;4.902;2022-11-14T09:49:41;54.33;;;18.40;;
74231;SDS011;62590;52.430;4.902;2022-11-14T09:55:11;48.78;;;18.17;;
74231;SDS011;62590;52.430;4.902;2022-11-14T09:57:41;53.20;;;18.27;;
74231;SDS011;62590;52.430;4.902;2022-11-14T10:00:21;46.17;;;17.50;;
74231;SDS011;62590;52.430;4.902;2022-11-14T10:08:43;39.42;;;14.27;;
74231;SDS011;62590;52.430;4.902;2022-11-14T10:11:20;41.70;;;15.25;;
74231;SDS011;62590;52.430;4.902;2022-11-14T10:14:07;44.80;;;17.48;;
74231;SDS011;62590;52.430;4.902;2022-11-14T10:25:27;37.63;;;14.63;;
74231;SDS011;62590;52.430;4.902;2022-11-14T10:28:12;38.70;;;15.00;;
74231;SDS011;62590;52.430;4.902;2022-11-14T10:33:32;44.80;;;16.05;;
74231;SDS011;62590;52.430;4.902;2022-11-14T10:36:20;41.90;;;15.13;;
74231;SDS011;62590;52.430;4.902;2022-11-14T10:38:50;38.47;;;16.30;;
74231;SDS011;62590;52.430;4.902;2022-11-14T10:41:23;47.08;;;16.35;;
74231;SDS011;62590;52.430;4.902;2022-11-14T10:43:50;37.97;;;16.52;;
74231;SDS011;62590;52.430;4.902;2022-11-14T10:49:12;41.35;;;15.77;;
74231;SDS011;62590;52.430;4.902;2022-11-14T10:51:44;36.75;;;14.35;;
74231;SDS011;62590;52.430;4.902;2022-11-14T10:54:26;43.10;;;17.17;;
74231;SDS011;62590;52.430;4.902;2022-11-14T10:56:58;39.42;;;15.70;;
74231;SDS011;62590;52.430;4.902;2022-11-14T10:59:24;39.92;;;16.27;;
74231;SDS011;62590;52.430;4.902;2022-11-14T11:01:52;38.10;;;15.10;;
74231;SDS011;62590;52.430;4.902;2022-11-14T11:04:27;39.75;;;16.50;;
74231;SDS011;62590;52.430;4.902;2022-11-14T11:06:55;33.00;;;14.27;;
74231;SDS011;62590;52.430;4.902;2022-11-14T11:09:24;39.20;;;16.40;;
74231;SDS011;62590;52.430;4.902;2022-11-14T11:12:14;35.20;;;14.55;;
74231;SDS011;62590;52.430;4.902;2022-11-14T11:14:42;36.05;;;15.05;;
74231;SDS011;62590;52.430;4.902;2022-11-14T11:19:39;40.67;;;15.15;;
74231;SDS011;62590;52.430;4.902;2022-11-14T11:22:48;34.67;;;14.65;;
74231;SDS011;62590;52.430;4.902;2022-11-14T11:24:59;38.58;;;15.95;;
74231;SDS011;62590;52.430;4.902;2022-11-14T11:27:26;37.10;;;14.43;;
74231;SDS011;62590;52.430;4.902;2022-11-14T11:32:30;30.10;;;14.48;;
74231;SDS011;62590;52.430;4.902;2022-11-14T11:34:56;41.95;;;15.27;;
74231;SDS011;62590;52.430;4.902;2022-11-14T11:39:59;38.10;;;15.40;;
74231;SDS011;62590;52.430;4.902;2022-11-14T11:45:01;36.92;;;15.05;;
74231;SDS011;62590;52.430;4.902;2022-11-14T11:47:30;41.60;;;15.23;;
74231;SDS011;62590;52.430;4.902;2022-11-14T11:49:58;34.75;;;17.38;;
74231;SDS011;62590;52.430;4.902;2022-11-14T12:00:41;32.42;;;15.40;;
74231;SDS011;62590;52.430;4.902;2022-11-14T12:03:10;33.08;;;15.13;;
74231;SDS011;62590;52.430;4.902;2022-11-14T12:05:49;33.53;;;14.38;;
74231;SDS011;62590;52.430;4.902;2022-11-14T12:08:25;35.20;;;16.08;;
74231;SDS011;62590;52.430;4.902;2022-11-14T12:11:23;32.20;;;14.82;;
74231;SDS011;62590;52.430;4.902;2022-11-14T12:32:48;39.05;;;15.68;;
74231;SDS011;62590;52.430;4.902;2022-11-14T12:35:19;33.72;;;16.05;;
74231;SDS011;62590;52.430;4.902;2022-11-14T12:37:48;38.45;;;16.02;;
74231;SDS011;62590;52.430;4.902;2022-11-14T12:42:56;32.78;;;15.55;;
74231;SDS011;62590;52.430;4.902;2022-11-14T12:50:51;32.20;;;15.90;;
74231;SDS011;62590;52.430;4.902;2022-11-14T13:01:23;32.08;;;12.35;;
74231;SDS011;62590;52.430;4.902;2022-11-14T13:09:06;29.73;;;14.15;;
74231;SDS011;62590;52.430;4.902;2022-11-14T13:11:52;25.48;;;11.73;;
74231;SDS011;62590;52.430;4.902;2022-11-14T13:14:53;30.10;;;14.25;;
74231;SDS011;62590;52.430;4.902;2022-11-14T13:17:39;30.88;;;12.63;;
74231;SDS011;62590;52.430;4.902;2022-11-14T13:20:25;29.70;;;14.02;;
74231;SDS011;62590;52.430;4.902;2022-11-14T13:31:05;35.58;;;16.65;;
74231;SDS011;62590;52.430;4.902;2022-11-14T13:36:08;29.38;;;13.88;;
74231;SDS011;62590;52.430;4.902;2022-11-14T13:38:52;33.97;;;15.88;;
74231;SDS011;62590;52.430;4.902;2022-11-14T13:50:54;33.25;;;15.95;;
74231;SDS011;62590;52.430;4.902;2022-11-14T13:53:21;32.03;;;14.63;;
74231;SDS011;62590;52.430;4.902;2022-11-14T13:58:40;29.98;;;14.27;;
74231;SDS011;62590;52.430;4.902;2022-11-14T14:01:21;31.95;;;15.00;;
74231;SDS011;62590;52.430;4.902;2022-11-14T14:17:23;31.30;;;14.85;;
74231;SDS011;62590;52.430;4.902;2022-11-14T14:22:58;39.05;;;17.60;;
74231;SDS011;62590;52.430;4.902;2022-11-14T14:31:30;43.10;;;19.08;;
74231;SDS011;62590;52.430;4.902;2022-11-14T14:34:02;41.95;;;20.50;;
74231;SDS011;62590;52.430;4.902;2022-11-14T14:36:55;46.50;;;21.25;;
74231;SDS011;62590;52.430;4.902;2022-11-14T14:39:22;48.33;;;23.35;;
74231;SDS011;62590;52.430;4.902;2022-11-14T14:41:49;49.88;;;23.65;;
74231;SDS011;62590;52.430;4.902;2022-11-14T14:44:29;44.80;;;22.30;;
74231;SDS011;62590;52.430;4.902;2022-11-14T14:46:58;51.28;;;24.73;;
74231;SDS011;62590;52.430;4.902;2022-11-14T14:49:38;48.08;;;23.17;;
74231;SDS011;62590;52.430;4.902;2022-11-14T14:54:55;49.25;;;23.27;;
74231;SDS011;62590;52.430;4.902;2022-11-14T14:57:22;49.58;;;23.00;;
74231;SDS011;62590;52.430;4.902;2022-11-14T15:00:32;52.20;;;24.45;;
74231;SDS011;62590;52.430;4.902;2022-11-14T15:02:59;48.22;;;21.65;;
74231;SDS011;62590;52.430;4.902;2022-11-14T15:05:25;50.53;;;24.08;;
74231;SDS011;62590;52.430;4.902;2022-11-14T15:07:57;46.28;;;22.70;;
74231;SDS011;62590;52.430;4.902;2022-11-14T15:10:25;49.58;;;20.48;;
74231;SDS011;62590;52.430;4.902;2022-11-14T15:12:53;46.60;;;20.85;;
74231;SDS011;62590;52.430;4.902;2022-11-14T15:15:20;43.45;;;20.30;;
74231;SDS011;62590;52.430;4.902;2022-11-14T15:17:50;41.67;;;19.83;;
74231;SDS011;62590;52.430;4.902;2022-11-14T15:20:22;40.30;;;20.95;;
74231;SDS011;62590;52.430;4.902;2022-11-14T15:23:02;42.97;;;21.10;;
74231;SDS011;62590;52.430;4.902;2022-11-14T15:25:34;40.65;;;19.92;;
74231;SDS011;62590;52.430;4.902;2022-11-14T15:28:00;36.88;;;19.60;;
74231;SDS011;62590;52.430;4.902;2022-11-14T15:30:27;51.83;;;22.08;;
74231;SDS011;62590;52.430;4.902;2022-11-14T15:33:01;37.65;;;18.65;;
74231;SDS011;62590;52.430;4.902;2022-11-14T15:35:35;45.78;;;21.58;;
74231;SDS011;62590;52.430;4.902;2022-11-14T15:40:38;41.50;;;21.15;;
74231;SDS011;62590;52.430;4.902;2022-11-14T15:46:01;40.95;;;20.42;;
74231;SDS011;62590;52.430;4.902;2022-11-14T15:48:27;45.95;;;21.13;;
74231;SDS011;62590;52.430;4.902;2022-11-14T15:50:53;39.85;;;18.90;;
74231;SDS011;62590;52.430;4.902;2022-11-14T15:53:22;45.53;;;20.95;;
74231;SDS011;62590;52.430;4.902;2022-11-14T15:55:49;46.00;;;19.38;;
74231;SDS011;62590;52.430;4.902;2022-11-14T15:58:14;49.08;;;21.52;;
74231;SDS011;62590;52.430;4.902;2022-11-14T16:00:42;41.50;;;18.52;;
74231;SDS011;62590;52.430;4.902;2022-11-14T16:03:10;43.03;;;20.23;;
74231;SDS011;62590;52.430;4.902;2022-11-14T16:05:39;44.03;;;20.90;;
74231;SDS011;62590;52.430;4.902;2022-11-14T16:08:05;47.00;;;22.33;;
74231;SDS011;62590;52.430;4.902;2022-11-14T16:10:30;44.13;;;20.77;;
74231;SDS011;62590;52.430;4.902;2022-11-14T16:12:56;43.35;;;20.27;;
74231;SDS011;62590;52.430;4.902;2022-11-14T16:15:21;44.83;;;21.30;;
74231;SDS011;62590;52.430;4.902;2022-11-14T16:17:47;43.35;;;20.55;;
74231;SDS011;62590;52.430;4.902;2022-11-14T16:20:15;48.15;;;20.27;;
74231;SDS011;62590;52.430;4.902;2022-11-14T16:22:45;49.67;;;21.67;;
74231;SDS011;62590;52.430;4.902;2022-11-14T16:25:15;42.78;;;21.90;;
74231;SDS011;62590;52.430;4.902;2022-11-14T16:27:46;55.72;;;25.00;;
74231;SDS011;62590;52.430;4.902;2022-11-14T16:30:13;48.42;;;21.80;;
74231;SDS011;62590;52.430;4.902;2022-11-14T16:32:40;46.05;;;22.48;;
74231;SDS011;62590;52.430;4.902;2022-11-14T16:37:41;49.53;;;22.98;;
74231;SDS011;62590;52.430;4.902;2022-11-14T16:40:11;52.00;;;23.35;;
74231;SDS011;62590;52.430;4.902;2022-11-14T16:42:41;53.78;;;23.42;;
74231;SDS011;62590;52.430;4.902;2022-11-14T16:45:07;53.30;;;22.48;;
74231;SDS011;62590;52.430;4.902;2022-11-14T16:47:33;59.72;;;27.33;;
74231;SDS011;62590;52.430;4.902;2022-11-14T16:49:58;60.13;;;26.50;;
74231;SDS011;62590;52.430;4.902;2022-11-14T16:52:25;52.80;;;24.33;;